createdAt,value
2023-09-19T00:01:28.809Z,100024.16
2023-09-19T00:03:55.590Z,100028.44
2023-09-19T00:06:22.124Z,100015.66
2023-09-19T00:08:48.866Z,100020.88
2023-09-19T00:11:15.271Z,100021.84
2023-09-19T00:13:41.953Z,100022.81
2023-09-19T00:16:12.755Z,100021.44
2023-09-19T00:18:39.940Z,100016.25
2023-09-19T00:21:06.820Z,100022.19
2023-09-19T00:23:33.451Z,100017.25
2023-09-19T00:26:03.546Z,100018.19
2023-09-19T00:28:30.058Z,100017.41
2023-09-19T00:30:57.300Z,100014.88
2023-09-19T00:33:24.097Z,100008.13
2023-09-19T00:35:51.681Z,100006.44
2023-09-19T00:38:18.232Z,100010.03
2023-09-19T00:40:45.943Z,100007.50
2023-09-19T00:43:12.510Z,100005.00
2023-09-19T00:45:42.910Z,100010.28
2023-09-19T00:48:10.243Z,100014.66
2023-09-19T00:50:37.337Z,100005.25
2023-09-19T00:53:03.904Z,100006.03
2023-09-19T00:55:32.347Z,100013.03
2023-09-19T00:57:58.812Z,100010.63
2023-09-19T01:00:25.957Z,100010.47
2023-09-19T01:02:52.922Z,100002.91
2023-09-19T01:05:19.898Z,100016.00
2023-09-19T01:07:46.571Z,100016.84
2023-09-19T01:10:16.642Z,100011.81
2023-09-19T01:13:11.175Z,100014.44
2023-09-19T01:15:37.843Z,100004.97
2023-09-19T01:18:24.630Z,100012.50
2023-09-19T01:21:15.061Z,100004.19
2023-09-19T01:24:12.741Z,100006.88
2023-09-19T01:27:16.646Z,100014.63
2023-09-19T01:29:45.565Z,100022.31
2023-09-19T01:32:20.473Z,100013.84
2023-09-19T01:34:51.403Z,100009.50
2023-09-19T01:37:19.634Z,100012.09
2023-09-19T01:39:48.514Z,100011.34
2023-09-19T01:42:46.682Z,100019.22
2023-09-19T01:45:21.593Z,100020.00
2023-09-19T01:47:53.653Z,100023.50
2023-09-19T01:50:39.993Z,100013.28
2023-09-19T01:53:11.359Z,100021.06
2023-09-19T01:55:44.585Z,100018.47
2023-09-19T01:58:33.967Z,100020.22
2023-09-19T02:01:02.025Z,100021.91
2023-09-19T02:03:29.462Z,100021.06
2023-09-19T02:05:56.335Z,100018.59
2023-09-19T02:08:23.887Z,100013.44
2023-09-19T02:10:50.793Z,100021.28
2023-09-19T02:13:21.641Z,100020.44
2023-09-19T02:15:48.188Z,100027.44
2023-09-19T02:18:15.013Z,100037.97
2023-09-19T02:20:41.855Z,100031.97
2023-09-19T02:23:08.955Z,100032.94
2023-09-19T02:25:35.679Z,100037.31
2023-09-19T02:28:02.810Z,100039.06
2023-09-19T02:30:29.623Z,100033.13
2023-09-19T02:32:56.081Z,100038.38
2023-09-19T02:35:22.686Z,100040.19
2023-09-19T02:37:49.841Z,100045.53
2023-09-19T02:40:16.688Z,100048.03
2023-09-19T02:42:43.809Z,100050.75
2023-09-19T02:45:10.614Z,100043.88
2023-09-19T02:47:37.440Z,100042.19
2023-09-19T02:50:04.233Z,100051.69
2023-09-19T02:52:30.804Z,100055.25
2023-09-19T02:54:57.349Z,100053.69
2023-09-19T02:57:24.122Z,100064.09
2023-09-19T02:59:50.920Z,100062.41
2023-09-19T03:02:17.714Z,100072.00
2023-09-19T03:04:44.262Z,100072.13
2023-09-19T03:07:10.830Z,100067.03
2023-09-19T03:09:37.348Z,100070.59
2023-09-19T03:12:04.316Z,100068.81
2023-09-19T03:14:30.800Z,100079.19
2023-09-19T03:16:57.565Z,100069.81
2023-09-19T03:19:24.010Z,100076.81
2023-09-19T03:21:50.495Z,100072.59
2023-09-19T03:24:18.302Z,100073.41
2023-09-19T03:26:44.895Z,100069.13
2023-09-19T03:29:11.395Z,100073.47
2023-09-19T03:31:38.239Z,100074.38
2023-09-19T03:34:05.180Z,100076.88
2023-09-19T03:36:31.751Z,100074.28
2023-09-19T03:38:58.536Z,100077.91
2023-09-19T03:41:25.274Z,100083.97
2023-09-19T03:43:52.034Z,100082.13
2023-09-19T03:46:18.750Z,100086.53
2023-09-19T03:48:45.181Z,100083.97
2023-09-19T03:51:11.664Z,100085.72
2023-09-19T03:53:38.611Z,100089.19
2023-09-19T03:56:05.530Z,100085.69
2023-09-19T03:58:32.159Z,100084.75
2023-09-19T04:00:59.114Z,100091.50
2023-09-19T04:03:25.954Z,100097.16
2023-09-19T04:05:52.456Z,100094.38
2023-09-19T04:08:19.187Z,100102.50
2023-09-19T04:10:45.698Z,100102.47
2023-09-19T04:13:12.291Z,100102.47
2023-09-19T04:15:39.102Z,100102.50
2023-09-19T04:18:05.666Z,100100.75
2023-09-19T04:20:32.195Z,100110.25
2023-09-19T04:22:58.751Z,100105.94
2023-09-19T04:25:25.550Z,100113.59
2023-09-19T04:27:52.040Z,100112.28
2023-09-19T04:30:18.615Z,100116.06
2023-09-19T04:32:45.113Z,100115.94
2023-09-19T04:35:12.199Z,100113.13
2023-09-19T04:37:40.221Z,100120.09
2023-09-19T04:40:10.909Z,100124.53
2023-09-19T04:42:37.349Z,100127.81
2023-09-19T04:45:04.103Z,100126.81
2023-09-19T04:47:31.838Z,100136.59
2023-09-19T04:49:58.346Z,100145.31
2023-09-19T04:52:26.241Z,100146.81
2023-09-19T04:54:54.211Z,100146.94
2023-09-19T04:57:20.702Z,100145.06
2023-09-19T04:59:47.139Z,100146.97
2023-09-19T05:02:13.671Z,100152.09
2023-09-19T05:04:40.177Z,100141.94
2023-09-19T05:07:06.630Z,100147.22
2023-09-19T05:09:33.033Z,100145.41
2023-09-19T05:11:59.400Z,100155.75
2023-09-19T05:14:26.188Z,100160.25
2023-09-19T05:16:52.531Z,100168.00
2023-09-19T05:19:19.035Z,100174.09
2023-09-19T05:21:45.751Z,100183.66
2023-09-19T05:24:12.234Z,100179.47
2023-09-19T05:26:38.669Z,100185.38
2023-09-19T05:29:05.113Z,100188.13
2023-09-19T05:31:31.611Z,100190.75
2023-09-19T05:33:58.444Z,100199.22
2023-09-19T05:36:24.958Z,100198.47
2023-09-19T05:38:51.418Z,100203.66
2023-09-19T05:41:17.848Z,100193.06
2023-09-19T05:43:44.660Z,100206.91
2023-09-19T05:46:11.128Z,100215.53
2023-09-19T05:48:37.669Z,100206.91
2023-09-19T05:51:04.108Z,100218.16
2023-09-19T05:53:30.559Z,100226.75
2023-09-19T05:55:57.165Z,100219.16
2023-09-19T05:58:23.797Z,100220.09
2023-09-19T06:00:51.089Z,100224.28
2023-09-19T06:03:17.679Z,100235.53
2023-09-19T06:05:44.103Z,100245.91
2023-09-19T06:08:10.582Z,100246.72
2023-09-19T06:10:37.186Z,100244.16
2023-09-19T06:13:05.028Z,100241.63
2023-09-19T06:15:31.646Z,100251.03
2023-09-19T06:17:59.316Z,100257.72
2023-09-19T06:20:26.639Z,100259.41
2023-09-19T06:22:54.322Z,100264.63
2023-09-19T06:25:21.480Z,100274.00
2023-09-19T06:27:49.406Z,100267.97
2023-09-19T06:30:16.300Z,100280.66
2023-09-19T06:32:42.876Z,100272.03
2023-09-19T06:35:09.522Z,100279.69
2023-09-19T06:37:36.233Z,100278.84
2023-09-19T06:40:02.779Z,100289.94
2023-09-19T06:42:29.249Z,100287.31
2023-09-19T06:44:55.654Z,100282.94
2023-09-19T06:47:22.350Z,100293.28
2023-09-19T06:49:48.794Z,100294.00
2023-09-19T06:52:16.534Z,100304.97
2023-09-19T06:54:43.220Z,100303.19
2023-09-19T06:57:09.676Z,100301.19
2023-09-19T06:59:36.121Z,100300.22
2023-09-19T07:02:03.574Z,100306.13
2023-09-19T07:04:30.203Z,100311.13
2023-09-19T07:06:56.620Z,100303.38
2023-09-19T07:09:23.393Z,100300.56
2023-09-19T07:11:50.250Z,100312.41
2023-09-19T07:14:16.604Z,100303.53
2023-09-19T07:16:43.102Z,100307.47
2023-09-19T07:19:09.656Z,100299.97
2023-09-19T07:21:36.096Z,100313.97
2023-09-19T07:24:02.724Z,100311.69
2023-09-19T07:26:29.283Z,100317.91
2023-09-19T07:28:55.873Z,100323.31
2023-09-19T07:31:22.506Z,100316.78
2023-09-19T07:33:49.214Z,100321.06
2023-09-19T07:36:16.591Z,100320.00
2023-09-19T07:38:43.541Z,100333.03
2023-09-19T07:41:10.302Z,100328.25
2023-09-19T07:43:37.573Z,100340.03
2023-09-19T07:46:07.858Z,100334.84
2023-09-19T07:48:35.466Z,100341.28
2023-09-19T07:51:07.011Z,100342.13
2023-09-19T07:53:36.682Z,100343.41
2023-09-19T07:56:08.172Z,100341.31
2023-09-19T07:58:35.245Z,100345.41
2023-09-19T08:01:09.401Z,100345.72
2023-09-19T08:03:36.067Z,100356.56
2023-09-19T08:06:02.506Z,100362.94
2023-09-19T08:08:28.961Z,100375.78
2023-09-19T08:10:56.697Z,100377.13
2023-09-19T08:13:24.458Z,100375.38
2023-09-19T08:15:52.009Z,100376.59
2023-09-19T08:18:18.574Z,100374.22
2023-09-19T08:20:50.676Z,100355.47
2023-09-19T08:23:17.302Z,100355.16
2023-09-19T08:25:59.000Z,100359.78
2023-09-19T08:28:25.706Z,100361.97
2023-09-19T08:30:52.611Z,100366.56
2023-09-19T08:33:19.074Z,100369.31
2023-09-19T08:35:45.583Z,100365.13
2023-09-19T08:38:11.969Z,100367.91
2023-09-19T08:40:39.373Z,100362.78
2023-09-19T08:43:05.878Z,100371.00
2023-09-19T08:45:32.557Z,100379.34
2023-09-19T08:48:13.976Z,100378.06
2023-09-19T08:50:51.279Z,100375.50
2023-09-19T08:53:27.340Z,100384.72
2023-09-19T08:55:53.864Z,100379.09
2023-09-19T08:58:22.398Z,100391.31
2023-09-19T09:00:52.609Z,100384.44
2023-09-19T09:03:19.894Z,100397.97
2023-09-19T09:05:47.444Z,100395.88
2023-09-19T09:08:16.467Z,100398.34
2023-09-19T09:10:45.476Z,100400.75
2023-09-19T09:13:12.599Z,100405.41
2023-09-19T09:15:39.779Z,100407.41
2023-09-19T09:18:06.361Z,100415.50
2023-09-19T09:20:32.941Z,100413.81
2023-09-19T09:22:59.440Z,100410.53
2023-09-19T09:25:49.292Z,100419.00
2023-09-19T09:28:21.908Z,100427.53
2023-09-19T09:30:49.031Z,100423.13
2023-09-19T09:33:16.559Z,100411.50
2023-09-19T09:35:55.652Z,100420.03
2023-09-19T09:38:24.279Z,100413.56
2023-09-19T09:43:38.849Z,100416.56
2023-09-19T09:44:14.392Z,100418.84
2023-09-19T09:46:44.070Z,100425.59
2023-09-19T09:49:11.549Z,100427.88
2023-09-19T09:51:38.062Z,100422.44
2023-09-19T09:54:14.731Z,100417.31
2023-09-19T09:57:01.473Z,100414.31
2023-09-19T09:59:47.957Z,100425.66
2023-09-19T10:02:15.679Z,100428.94
2023-09-19T10:04:44.382Z,100425.91
2023-09-19T10:07:29.308Z,100423.19
2023-09-19T10:09:56.210Z,100424.38
2023-09-19T10:12:22.651Z,100426.63
2023-09-19T10:14:49.437Z,100420.06
2023-09-19T10:17:17.918Z,100435.03
2023-09-19T10:19:52.895Z,100422.75
2023-09-19T10:22:20.921Z,100441.22
2023-09-19T10:25:01.700Z,100426.91
2023-09-19T10:27:30.291Z,100426.38
2023-09-19T10:29:59.732Z,100429.50
2023-09-19T10:32:29.189Z,100424.28
2023-09-19T10:34:58.309Z,100424.84
2023-09-19T10:37:28.424Z,100420.19
2023-09-19T10:39:57.637Z,100430.13
2023-09-19T10:42:26.184Z,100422.75
2023-09-19T10:44:53.760Z,100416.81
2023-09-19T10:47:20.861Z,100421.91
2023-09-19T10:49:48.126Z,100414.44
2023-09-19T10:52:22.986Z,100419.91
2023-09-19T10:54:53.020Z,100417.53
2023-09-19T10:57:23.455Z,100428.53
2023-09-19T11:00:03.471Z,100420.66
2023-09-19T11:02:30.327Z,100433.44
2023-09-19T11:05:12.868Z,100414.41
2023-09-19T11:08:02.621Z,100425.31
2023-09-19T11:10:47.226Z,100429.47
2023-09-19T11:13:25.834Z,100437.75
2023-09-19T11:15:58.742Z,100419.50
2023-09-19T11:18:43.987Z,100429.03
2023-09-19T11:21:28.727Z,100428.56
2023-09-19T11:24:16.972Z,100426.47
2023-09-19T11:26:44.904Z,100437.66
2023-09-19T11:29:27.059Z,100437.56
2023-09-19T11:31:53.846Z,100445.66
2023-09-19T11:34:39.901Z,100432.53
2023-09-19T11:37:12.057Z,100437.78
2023-09-19T11:39:39.653Z,100443.47
2023-09-19T11:42:43.287Z,100456.84
2023-09-19T11:45:41.929Z,100451.81
2023-09-19T11:48:10.232Z,100440.84
2023-09-19T11:50:37.520Z,100446.97
2023-09-19T11:53:04.487Z,100445.56
2023-09-19T11:55:31.107Z,100440.63
2023-09-19T11:57:58.354Z,100443.47
2023-09-19T12:00:24.870Z,100436.13
2023-09-19T12:02:56.730Z,100448.97
2023-09-19T12:05:32.628Z,100449.88
2023-09-19T12:07:59.184Z,100437.16
2023-09-19T12:10:26.149Z,100452.91
2023-09-19T12:12:54.134Z,100445.69
2023-09-19T12:15:27.166Z,100445.50
2023-09-19T12:17:54.482Z,100442.75
2023-09-19T12:20:21.063Z,100457.03
2023-09-19T12:22:49.038Z,100461.03
2023-09-19T12:25:15.801Z,100455.94
2023-09-19T12:27:42.791Z,100447.81
2023-09-19T12:30:24.607Z,100448.94
2023-09-19T12:32:53.958Z,100454.72
2023-09-19T12:35:31.095Z,100445.06
2023-09-19T12:37:57.654Z,100438.84
2023-09-19T12:40:26.189Z,100454.00
2023-09-19T12:42:55.132Z,100453.59
2023-09-19T12:45:22.008Z,100460.91
2023-09-19T12:48:19.314Z,100445.47
2023-09-19T12:51:05.661Z,100440.66
2023-09-19T12:53:33.705Z,100442.19
2023-09-19T12:56:01.399Z,100441.75
2023-09-19T12:58:28.140Z,100433.34
2023-09-19T13:00:54.635Z,100427.38
2023-09-19T13:03:24.342Z,100434.69
2023-09-19T13:05:52.474Z,100431.63
2023-09-19T13:08:29.999Z,100432.47
2023-09-19T13:11:06.037Z,100439.28
2023-09-19T13:13:33.578Z,100445.19
2023-09-19T13:16:00.574Z,100431.59
2023-09-19T13:18:27.015Z,100439.91
2023-09-19T13:21:10.243Z,100430.06
2023-09-19T13:23:36.629Z,100434.72
2023-09-19T13:26:03.113Z,100432.88
2023-09-19T13:28:29.885Z,100439.06
2023-09-19T13:30:56.280Z,100432.59
2023-09-19T13:33:22.706Z,100440.25
2023-09-19T13:35:49.522Z,100446.28
2023-09-19T13:38:16.061Z,100449.94
2023-09-19T13:40:42.559Z,100444.44
2023-09-19T13:43:09.332Z,100441.13
2023-09-19T13:45:35.988Z,100442.03
2023-09-19T13:48:02.531Z,100440.22
2023-09-19T13:50:29.212Z,100437.53
2023-09-19T13:52:55.677Z,100450.19
2023-09-19T13:55:22.556Z,100444.72
2023-09-19T13:57:49.487Z,100444.44
2023-09-19T14:00:15.992Z,100445.22
2023-09-19T14:02:42.933Z,100442.81
2023-09-19T14:05:09.712Z,100440.56
2023-09-19T14:07:36.125Z,100434.19
2023-09-19T14:10:02.788Z,100437.53
2023-09-19T14:12:29.532Z,100440.78
2023-09-19T14:14:55.854Z,100433.03
2023-09-19T14:17:22.361Z,100434.38
2023-09-19T14:19:48.856Z,100436.31
2023-09-19T14:22:15.369Z,100426.75
2023-09-19T14:24:41.834Z,100439.94
2023-09-19T14:27:08.328Z,100431.78
2023-09-19T14:29:34.900Z,100426.63
2023-09-19T14:32:01.445Z,100438.69
2023-09-19T14:34:27.902Z,100437.53
2023-09-19T14:36:54.439Z,100431.56
2023-09-19T14:39:21.218Z,100429.59
2023-09-19T14:41:47.675Z,100436.06
2023-09-19T14:44:14.430Z,100430.50
2023-09-19T14:46:40.921Z,100430.44
2023-09-19T14:49:07.889Z,100427.19
2023-09-19T14:51:34.328Z,100426.34
2023-09-19T14:54:00.903Z,100428.09
2023-09-19T14:56:27.396Z,100433.47
2023-09-19T14:58:53.801Z,100432.47
2023-09-19T15:01:20.307Z,100434.38
2023-09-19T15:03:47.082Z,100419.28
2023-09-19T15:06:14.097Z,100415.78
2023-09-19T15:08:40.645Z,100412.38
2023-09-19T15:11:10.481Z,100417.53
2023-09-19T15:13:37.813Z,100413.81
2023-09-19T15:16:06.531Z,100409.00
2023-09-19T15:18:32.942Z,100405.50
2023-09-19T15:21:02.039Z,100415.84
2023-09-19T15:23:32.446Z,100416.03
2023-09-19T15:25:59.656Z,100408.38
2023-09-19T15:28:26.148Z,100408.69
2023-09-19T15:31:02.146Z,100415.81
2023-09-19T15:33:29.134Z,100412.38
2023-09-19T15:36:07.898Z,100410.66
2023-09-19T15:38:56.837Z,100404.88
2023-09-19T15:41:23.954Z,100402.59
2023-09-19T15:43:50.429Z,100410.47
2023-09-19T15:46:17.259Z,100413.06
2023-09-19T15:48:43.844Z,100410.53
2023-09-19T15:51:10.305Z,100419.31
2023-09-19T15:53:48.439Z,100414.19
2023-09-19T15:56:15.859Z,100410.69
2023-09-19T15:58:45.485Z,100409.16
2023-09-19T16:01:12.549Z,100403.06
2023-09-19T16:03:40.658Z,100409.16
2023-09-19T16:06:11.273Z,100413.66
2023-09-19T16:08:42.256Z,100407.63
2023-09-19T16:11:09.287Z,100406.03
2023-09-19T16:13:40.499Z,100407.97
2023-09-19T16:16:08.807Z,100417.63
2023-09-19T16:18:36.894Z,100415.13
2023-09-19T16:21:07.085Z,100410.22
2023-09-19T16:23:33.509Z,100413.00
2023-09-19T16:26:08.403Z,100417.41
2023-09-19T16:28:39.867Z,100418.19
2023-09-19T16:31:08.426Z,100417.56
2023-09-19T16:33:37.260Z,100421.13
2023-09-19T16:36:08.760Z,100423.91
2023-09-19T16:38:35.262Z,100419.75
2023-09-19T16:41:01.753Z,100422.50
2023-09-19T16:43:28.850Z,100428.81
2023-09-19T16:46:00.516Z,100423.94
2023-09-19T16:48:28.757Z,100421.66
2023-09-19T16:50:55.247Z,100421.13
2023-09-19T16:53:22.405Z,100422.94
2023-09-19T16:55:49.527Z,100422.44
2023-09-19T16:58:17.139Z,100423.38
2023-09-19T17:00:44.437Z,100421.69
2023-09-19T17:03:10.980Z,100432.28
2023-09-19T17:05:38.175Z,100428.28
2023-09-19T17:08:05.320Z,100429.22
2023-09-19T17:10:32.588Z,100419.78
2023-09-19T17:12:59.766Z,100423.59
2023-09-19T17:15:26.527Z,100418.69
2023-09-19T17:17:54.127Z,100420.59
2023-09-19T17:20:20.680Z,100425.28
2023-09-19T17:22:50.694Z,100421.84
2023-09-19T17:25:17.758Z,100417.06
2023-09-19T17:27:44.195Z,100424.22
2023-09-19T17:30:12.457Z,100425.41
2023-09-19T17:32:38.922Z,100425.78
2023-09-19T17:35:06.086Z,100424.41
2023-09-19T17:37:34.377Z,100435.81
2023-09-19T17:40:01.426Z,100437.72
2023-09-19T17:42:28.750Z,100441.28
2023-09-19T17:44:55.248Z,100441.47
2023-09-19T17:47:24.633Z,100439.09
2023-09-19T17:49:51.158Z,100452.28
2023-09-19T17:52:18.137Z,100459.28
2023-09-19T17:54:45.606Z,100456.91
2023-09-19T17:57:12.194Z,100456.38
2023-09-19T17:59:38.633Z,100459.97
2023-09-19T18:02:05.151Z,100459.34
2023-09-19T18:04:31.678Z,100464.78
2023-09-19T18:06:58.964Z,100472.66
2023-09-19T18:09:25.585Z,100476.19
2023-09-19T18:11:52.090Z,100473.84
2023-09-19T18:14:21.780Z,100470.44
2023-09-19T18:16:48.377Z,100474.91
2023-09-19T18:19:14.885Z,100466.44
2023-09-19T18:21:41.334Z,100473.47
2023-09-19T18:24:09.328Z,100472.59
2023-09-19T18:26:36.480Z,100472.72
2023-09-19T18:29:03.146Z,100469.25
2023-09-19T18:31:30.304Z,100477.19
2023-09-19T18:33:56.920Z,100477.19
2023-09-19T18:36:23.482Z,100485.81
2023-09-19T18:38:50.294Z,100484.06
2023-09-19T18:41:16.994Z,100485.78
2023-09-19T18:43:44.234Z,100491.81
2023-09-19T18:46:10.865Z,100493.56
2023-09-19T18:48:38.675Z,100495.31
2023-09-19T18:51:09.311Z,100485.06
2023-09-19T18:53:37.526Z,100490.19
2023-09-19T18:56:09.246Z,100489.41
2023-09-19T18:58:36.237Z,100489.59
2023-09-19T19:01:08.246Z,100490.47
2023-09-19T19:03:35.641Z,100489.59
2023-09-19T19:06:06.558Z,100490.47
2023-09-19T19:08:33.752Z,100494.91
2023-09-19T19:11:01.058Z,100506.19
2023-09-19T19:13:27.708Z,100501.81
2023-09-19T19:15:58.099Z,100500.19
2023-09-19T19:18:24.644Z,100504.56
2023-09-19T19:21:00.376Z,100498.50
2023-09-19T19:23:26.834Z,100497.63
2023-09-19T19:25:54.767Z,100503.69
2023-09-19T19:28:23.081Z,100508.97
2023-09-19T19:30:53.008Z,100513.44
2023-09-19T19:33:19.487Z,100514.38
2023-09-19T19:35:46.206Z,100512.78
2023-09-19T19:38:12.705Z,100508.59
2023-09-19T19:40:39.244Z,100516.41
2023-09-19T19:43:05.739Z,100500.97
2023-09-19T19:45:32.221Z,100503.59
2023-09-19T19:47:58.956Z,100513.09
2023-09-19T19:50:26.553Z,100507.19
2023-09-19T19:52:54.133Z,100511.53
2023-09-19T19:55:20.750Z,100509.75
2023-09-19T19:57:49.590Z,100512.50
2023-09-19T20:00:16.763Z,100509.03
2023-09-19T20:02:45.367Z,100503.97
2023-09-19T20:05:12.069Z,100508.25
2023-09-19T20:07:38.717Z,100506.63
2023-09-19T20:10:05.852Z,100503.75
2023-09-19T20:12:32.292Z,100508.00
2023-09-19T20:14:59.675Z,100507.16
2023-09-19T20:17:26.248Z,100509.75
2023-09-19T20:19:53.051Z,100501.91
2023-09-19T20:22:19.973Z,100507.94
2023-09-19T20:24:46.431Z,100507.16
2023-09-19T20:27:12.901Z,100505.25
2023-09-19T20:29:42.256Z,100502.63
2023-09-19T20:32:08.997Z,100508.28
2023-09-19T20:34:35.982Z,100498.78
2023-09-19T20:37:03.466Z,100506.50
2023-09-19T20:39:30.261Z,100500.59
2023-09-19T20:41:58.921Z,100503.91
2023-09-19T20:44:25.448Z,100500.44
2023-09-19T20:46:52.385Z,100497.69
2023-09-19T20:49:19.414Z,100487.34
2023-09-19T20:51:45.774Z,100497.03
2023-09-19T20:54:12.200Z,100497.09
2023-09-19T20:56:39.582Z,100500.50
2023-09-19T20:59:07.203Z,100493.81
2023-09-19T21:01:33.778Z,100496.41
2023-09-19T21:04:00.332Z,100493.94
2023-09-19T21:06:26.819Z,100488.94
2023-09-19T21:08:53.677Z,100486.50
2023-09-19T21:11:21.965Z,100486.66
2023-09-19T21:13:50.428Z,100486.00
2023-09-19T21:16:17.218Z,100486.94
2023-09-19T21:18:45.778Z,100494.81
2023-09-19T21:21:13.115Z,100494.94
2023-09-19T21:23:40.394Z,100502.03
2023-09-19T21:26:09.815Z,100499.53
2023-09-19T21:28:36.399Z,100503.88
2023-09-19T21:31:10.486Z,100497.03
2023-09-19T21:33:41.064Z,100498.94
2023-09-19T21:36:09.412Z,100501.72
2023-09-19T21:38:40.176Z,100492.19
2023-09-19T21:41:11.752Z,100500.03
2023-09-19T21:43:39.100Z,100498.38
2023-09-19T21:46:05.725Z,100495.91
2023-09-19T21:48:34.895Z,100495.94
2023-09-19T21:51:01.718Z,100492.69
2023-09-19T21:53:28.361Z,100487.56
2023-09-19T21:56:03.706Z,100485.88
2023-09-19T21:58:31.144Z,100480.69
2023-09-19T22:00:57.609Z,100484.22
2023-09-19T22:03:24.487Z,100486.06
2023-09-19T22:05:50.868Z,100482.59
2023-09-19T22:08:17.532Z,100471.44
2023-09-19T22:10:44.664Z,100474.16
2023-09-19T22:13:11.503Z,100474.97
2023-09-19T22:15:38.024Z,100475.00
2023-09-19T22:18:06.217Z,100476.81
2023-09-19T22:20:32.681Z,100478.50
2023-09-19T22:23:00.256Z,100476.00
2023-09-19T22:25:27.827Z,100476.06
2023-09-19T22:27:54.487Z,100468.28
2023-09-19T22:30:21.262Z,100469.19
2023-09-19T22:32:47.738Z,100460.69
2023-09-19T22:35:14.623Z,100464.16
2023-09-19T22:37:41.057Z,100466.78
2023-09-19T22:40:08.510Z,100472.78
2023-09-19T22:42:34.976Z,100474.50
2023-09-19T22:45:01.709Z,100467.56
2023-09-19T22:47:28.209Z,100471.94
2023-09-19T22:49:54.849Z,100471.91
2023-09-19T22:52:21.342Z,100466.78
2023-09-19T22:54:47.793Z,100470.22
2023-09-19T22:57:14.277Z,100467.59
2023-09-19T22:59:41.366Z,100465.88
2023-09-19T23:02:07.935Z,100467.59
2023-09-19T23:04:34.462Z,100466.72
2023-09-19T23:07:00.939Z,100464.19
2023-09-19T23:09:28.917Z,100464.97
2023-09-19T23:12:02.766Z,100465.88
2023-09-19T23:14:30.072Z,100469.28
2023-09-19T23:16:56.617Z,100473.50
2023-09-19T23:19:25.199Z,100474.50
2023-09-19T23:21:51.717Z,100468.44
2023-09-19T23:24:18.821Z,100471.09
2023-09-19T23:26:45.264Z,100471.09
2023-09-19T23:29:11.922Z,100471.09
2023-09-19T23:31:38.331Z,100465.81
2023-09-19T23:34:05.005Z,100470.91
2023-09-19T23:36:31.456Z,100473.63
2023-09-19T23:38:57.884Z,100466.78
2023-09-19T23:41:24.715Z,100468.47
2023-09-19T23:43:51.352Z,100462.47
2023-09-19T23:46:17.814Z,100464.19
2023-09-19T23:48:44.259Z,100465.19
2023-09-19T23:51:10.844Z,100464.34
2023-09-19T23:53:37.401Z,100469.53
2023-09-19T23:56:04.414Z,100472.16
2023-09-19T23:58:30.752Z,100466.16
